sensor_id;sensor_type;location;lat;lon;timestamp;P1;durP1;ratioP1;P2;durP2;ratioP2
49460;SDS011;35355;49.198;-0.368;2022-09-09T00:06:57;18.98;;;3.15;;
49460;SDS011;35355;49.198;-0.368;2022-09-09T00:09:47;6.00;;;1.67;;
49460;SDS011;35355;49.198;-0.368;2022-09-09T00:12:22;10.05;;;1.73;;
49460;SDS011;35355;49.198;-0.368;2022-09-09T00:14:58;13.05;;;1.58;;
49460;SDS011;35355;49.198;-0.368;2022-09-09T00:23:12;8.43;;;1.40;;
49460;SDS011;35355;49.198;-0.368;2022-09-09T00:25:47;8.40;;;1.10;;
49460;SDS011;35355;49.198;-0.368;2022-09-09T00:28:20;12.20;;;1.33;;
49460;SDS011;35355;49.198;-0.368;2022-09-09T00:30:48;12.43;;;1.27;;
49460;SDS011;35355;49.198;-0.368;2022-09-09T00:33:14;14.50;;;1.77;;
49460;SDS011;35355;49.198;-0.368;2022-09-09T00:36:01;11.68;;;1.80;;
49460;SDS011;35355;49.198;-0.368;2022-09-09T00:38:35;8.77;;;1.20;;
49460;SDS011;35355;49.198;-0.368;2022-09-09T00:41:06;10.43;;;1.55;;
49460;SDS011;35355;49.198;-0.368;2022-09-09T00:43:40;10.88;;;1.83;;
49460;SDS011;35355;49.198;-0.368;2022-09-09T00:48:54;8.77;;;1.15;;
49460;SDS011;35355;49.198;-0.368;2022-09-09T00:51:56;18.25;;;2.00;;
49460;SDS011;35355;49.198;-0.368;2022-09-09T00:59:59;9.38;;;1.73;;
49460;SDS011;35355;49.198;-0.368;2022-09-09T01:02:31;10.70;;;1.63;;
49460;SDS011;35355;49.198;-0.368;2022-09-09T01:08:53;7.65;;;1.35;;
49460;SDS011;35355;49.198;-0.368;2022-09-09T01:10:55;11.85;;;2.60;;
49460;SDS011;35355;49.198;-0.368;2022-09-09T01:13:30;10.10;;;1.00;;
49460;SDS011;35355;49.198;-0.368;2022-09-09T01:15:59;8.25;;;1.13;;
49460;SDS011;35355;49.198;-0.368;2022-09-09T01:18:27;15.65;;;1.30;;
49460;SDS011;35355;49.198;-0.368;2022-09-09T01:24:04;16.55;;;1.67;;
49460;SDS011;35355;49.198;-0.368;2022-09-09T01:26:41;8.02;;;1.27;;
49460;SDS011;35355;49.198;-0.368;2022-09-09T01:29:09;13.07;;;2.03;;
49460;SDS011;35355;49.198;-0.368;2022-09-09T01:31:55;20.98;;;1.10;;
49460;SDS011;35355;49.198;-0.368;2022-09-09T01:34:22;8.52;;;2.17;;
49460;SDS011;35355;49.198;-0.368;2022-09-09T01:39:16;15.93;;;1.38;;
49460;SDS011;35355;49.198;-0.368;2022-09-09T01:41:42;7.45;;;0.98;;
49460;SDS011;35355;49.198;-0.368;2022-09-09T01:44:07;7.07;;;1.35;;
49460;SDS011;35355;49.198;-0.368;2022-09-09T01:46:34;8.90;;;1.38;;
49460;SDS011;35355;49.198;-0.368;2022-09-09T01:49:00;10.05;;;1.00;;
49460;SDS011;35355;49.198;-0.368;2022-09-09T01:51:28;13.48;;;2.30;;
49460;SDS011;35355;49.198;-0.368;2022-09-09T01:53:54;12.68;;;1.60;;
49460;SDS011;35355;49.198;-0.368;2022-09-09T02:04:45;14.40;;;2.35;;
49460;SDS011;35355;49.198;-0.368;2022-09-09T02:07:21;8.13;;;0.98;;
49460;SDS011;35355;49.198;-0.368;2022-09-09T02:09:52;9.75;;;1.13;;
49460;SDS011;35355;49.198;-0.368;2022-09-09T02:15:32;6.22;;;0.82;;
49460;SDS011;35355;49.198;-0.368;2022-09-09T02:18:12;9.52;;;1.35;;
49460;SDS011;35355;49.198;-0.368;2022-09-09T02:20:40;8.82;;;1.10;;
49460;SDS011;35355;49.198;-0.368;2022-09-09T02:23:08;9.55;;;1.35;;
49460;SDS011;35355;49.198;-0.368;2022-09-09T02:25:35;13.18;;;1.60;;
49460;SDS011;35355;49.198;-0.368;2022-09-09T02:28:01;10.68;;;1.10;;
49460;SDS011;35355;49.198;-0.368;2022-09-09T02:30:32;7.00;;;1.20;;
49460;SDS011;35355;49.198;-0.368;2022-09-09T02:33:00;11.05;;;1.23;;
49460;SDS011;35355;49.198;-0.368;2022-09-09T02:35:29;8.88;;;1.10;;
49460;SDS011;35355;49.198;-0.368;2022-09-09T02:37:59;9.98;;;1.40;;
49460;SDS011;35355;49.198;-0.368;2022-09-09T02:40:28;20.23;;;1.73;;
49460;SDS011;35355;49.198;-0.368;2022-09-09T02:42:54;12.65;;;1.63;;
49460;SDS011;35355;49.198;-0.368;2022-09-09T02:45:22;9.30;;;1.33;;
49460;SDS011;35355;49.198;-0.368;2022-09-09T02:47:51;5.35;;;1.55;;
49460;SDS011;35355;49.198;-0.368;2022-09-09T02:50:35;7.60;;;1.10;;
49460;SDS011;35355;49.198;-0.368;2022-09-09T02:53:46;8.63;;;2.28;;
49460;SDS011;35355;49.198;-0.368;2022-09-09T02:56:15;10.85;;;1.27;;
49460;SDS011;35355;49.198;-0.368;2022-09-09T02:58:42;10.50;;;1.15;;
49460;SDS011;35355;49.198;-0.368;2022-09-09T03:01:08;1.10;;;0.25;;
49460;SDS011;35355;49.198;-0.368;2022-09-09T03:03:33;5.28;;;1.08;;
49460;SDS011;35355;49.198;-0.368;2022-09-09T03:05:59;11.43;;;1.50;;
49460;SDS011;35355;49.198;-0.368;2022-09-09T03:08:24;13.23;;;1.15;;
49460;SDS011;35355;49.198;-0.368;2022-09-09T03:10:50;6.20;;;1.50;;
49460;SDS011;35355;49.198;-0.368;2022-09-09T03:13:17;16.42;;;1.23;;
49460;SDS011;35355;49.198;-0.368;2022-09-09T03:15:44;11.63;;;1.85;;
49460;SDS011;35355;49.198;-0.368;2022-09-09T03:18:10;6.03;;;1.20;;
49460;SDS011;35355;49.198;-0.368;2022-09-09T03:20:35;7.35;;;1.17;;
49460;SDS011;35355;49.198;-0.368;2022-09-09T03:23:00;13.85;;;1.23;;
49460;SDS011;35355;49.198;-0.368;2022-09-09T03:25:27;12.20;;;2.10;;
49460;SDS011;35355;49.198;-0.368;2022-09-09T03:27:54;11.30;;;1.17;;
49460;SDS011;35355;49.198;-0.368;2022-09-09T03:30:26;8.43;;;1.77;;
49460;SDS011;35355;49.198;-0.368;2022-09-09T03:32:52;6.35;;;0.85;;
49460;SDS011;35355;49.198;-0.368;2022-09-09T03:35:18;8.73;;;1.48;;
49460;SDS011;35355;49.198;-0.368;2022-09-09T03:37:44;10.07;;;1.20;;
49460;SDS011;35355;49.198;-0.368;2022-09-09T03:40:10;11.80;;;1.67;;
49460;SDS011;35355;49.198;-0.368;2022-09-09T03:42:36;14.88;;;1.48;;
49460;SDS011;35355;49.198;-0.368;2022-09-09T03:45:03;6.03;;;1.00;;
49460;SDS011;35355;49.198;-0.368;2022-09-09T03:47:30;11.63;;;1.52;;
49460;SDS011;35355;49.198;-0.368;2022-09-09T03:49:55;12.80;;;1.10;;
49460;SDS011;35355;49.198;-0.368;2022-09-09T03:52:20;7.07;;;1.10;;
49460;SDS011;35355;49.198;-0.368;2022-09-09T03:54:49;11.57;;;1.67;;
49460;SDS011;35355;49.198;-0.368;2022-09-09T03:57:16;14.70;;;1.80;;
49460;SDS011;35355;49.198;-0.368;2022-09-09T03:59:42;2.35;;;0.63;;
49460;SDS011;35355;49.198;-0.368;2022-09-09T04:02:07;11.18;;;1.20;;
49460;SDS011;35355;49.198;-0.368;2022-09-09T04:04:34;4.82;;;0.82;;
49460;SDS011;35355;49.198;-0.368;2022-09-09T04:06:59;9.43;;;1.30;;
49460;SDS011;35355;49.198;-0.368;2022-09-09T04:09:24;5.18;;;0.75;;
49460;SDS011;35355;49.198;-0.368;2022-09-09T04:11:50;4.80;;;0.75;;
49460;SDS011;35355;49.198;-0.368;2022-09-09T04:14:15;17.33;;;1.35;;
49460;SDS011;35355;49.198;-0.368;2022-09-09T04:16:41;7.43;;;1.35;;
49460;SDS011;35355;49.198;-0.368;2022-09-09T04:19:09;5.57;;;0.75;;
49460;SDS011;35355;49.198;-0.368;2022-09-09T04:21:39;5.10;;;1.23;;
49460;SDS011;35355;49.198;-0.368;2022-09-09T04:24:05;4.15;;;0.65;;
49460;SDS011;35355;49.198;-0.368;2022-09-09T04:26:31;6.90;;;1.38;;
49460;SDS011;35355;49.198;-0.368;2022-09-09T04:28:57;8.48;;;0.93;;
49460;SDS011;35355;49.198;-0.368;2022-09-09T04:31:23;3.10;;;0.70;;
49460;SDS011;35355;49.198;-0.368;2022-09-09T04:33:49;6.85;;;0.70;;
49460;SDS011;35355;49.198;-0.368;2022-09-09T04:36:18;3.45;;;0.68;;
49460;SDS011;35355;49.198;-0.368;2022-09-09T04:38:44;13.70;;;1.13;;
49460;SDS011;35355;49.198;-0.368;2022-09-09T04:41:10;3.78;;;1.02;;
49460;SDS011;35355;49.198;-0.368;2022-09-09T04:43:37;5.97;;;1.02;;
49460;SDS011;35355;49.198;-0.368;2022-09-09T04:46:03;9.98;;;1.33;;
49460;SDS011;35355;49.198;-0.368;2022-09-09T04:48:29;10.48;;;1.08;;
49460;SDS011;35355;49.198;-0.368;2022-09-09T04:51:06;5.78;;;1.27;;
49460;SDS011;35355;49.198;-0.368;2022-09-09T04:53:34;4.40;;;0.95;;
49460;SDS011;35355;49.198;-0.368;2022-09-09T04:56:03;8.15;;;0.80;;
49460;SDS011;35355;49.198;-0.368;2022-09-09T04:58:29;5.10;;;0.88;;
49460;SDS011;35355;49.198;-0.368;2022-09-09T05:00:55;8.52;;;1.02;;
49460;SDS011;35355;49.198;-0.368;2022-09-09T05:03:30;9.57;;;0.77;;
49460;SDS011;35355;49.198;-0.368;2022-09-09T05:06:01;10.48;;;1.35;;
49460;SDS011;35355;49.198;-0.368;2022-09-09T05:10:54;6.22;;;1.10;;
49460;SDS011;35355;49.198;-0.368;2022-09-09T05:13:20;9.07;;;1.02;;
49460;SDS011;35355;49.198;-0.368;2022-09-09T05:15:55;9.43;;;1.23;;
49460;SDS011;35355;49.198;-0.368;2022-09-09T05:18:20;12.80;;;1.85;;
49460;SDS011;35355;49.198;-0.368;2022-09-09T05:20:47;8.57;;;0.98;;
49460;SDS011;35355;49.198;-0.368;2022-09-09T05:41:49;11.73;;;1.85;;
49460;SDS011;35355;49.198;-0.368;2022-09-09T05:44:16;12.63;;;2.03;;
49460;SDS011;35355;49.198;-0.368;2022-09-09T05:46:42;11.38;;;2.22;;
49460;SDS011;35355;49.198;-0.368;2022-09-09T05:49:08;16.95;;;3.17;;
49460;SDS011;35355;49.198;-0.368;2022-09-09T05:51:36;21.83;;;2.40;;
49460;SDS011;35355;49.198;-0.368;2022-09-09T05:54:02;23.60;;;2.30;;
49460;SDS011;35355;49.198;-0.368;2022-09-09T05:56:29;19.08;;;2.20;;
49460;SDS011;35355;49.198;-0.368;2022-09-09T05:58:55;19.92;;;2.60;;
49460;SDS011;35355;49.198;-0.368;2022-09-09T06:03:49;20.25;;;2.85;;
49460;SDS011;35355;49.198;-0.368;2022-09-09T06:06:18;20.30;;;2.75;;
49460;SDS011;35355;49.198;-0.368;2022-09-09T06:08:57;24.08;;;3.45;;
49460;SDS011;35355;49.198;-0.368;2022-09-09T06:11:24;17.65;;;3.00;;
49460;SDS011;35355;49.198;-0.368;2022-09-09T06:13:56;22.15;;;2.65;;
49460;SDS011;35355;49.198;-0.368;2022-09-09T06:16:25;22.55;;;2.33;;
49460;SDS011;35355;49.198;-0.368;2022-09-09T06:18:53;19.08;;;2.80;;
49460;SDS011;35355;49.198;-0.368;2022-09-09T06:21:21;24.52;;;2.25;;
49460;SDS011;35355;49.198;-0.368;2022-09-09T06:23:48;14.73;;;1.88;;
49460;SDS011;35355;49.198;-0.368;2022-09-09T06:26:22;22.25;;;2.60;;
49460;SDS011;35355;49.198;-0.368;2022-09-09T06:28:58;20.92;;;2.45;;
49460;SDS011;35355;49.198;-0.368;2022-09-09T06:31:25;20.13;;;2.72;;
49460;SDS011;35355;49.198;-0.368;2022-09-09T06:33:58;25.10;;;2.72;;
49460;SDS011;35355;49.198;-0.368;2022-09-09T06:36:26;20.63;;;2.85;;
49460;SDS011;35355;49.198;-0.368;2022-09-09T06:38:58;24.93;;;2.70;;
49460;SDS011;35355;49.198;-0.368;2022-09-09T06:41:28;23.13;;;2.67;;
49460;SDS011;35355;49.198;-0.368;2022-09-09T06:43:55;25.65;;;2.22;;
49460;SDS011;35355;49.198;-0.368;2022-09-09T06:46:21;21.38;;;2.53;;
49460;SDS011;35355;49.198;-0.368;2022-09-09T06:48:52;8.90;;;1.52;;
49460;SDS011;35355;49.198;-0.368;2022-09-09T06:51:21;18.20;;;2.85;;
49460;SDS011;35355;49.198;-0.368;2022-09-09T06:53:52;18.00;;;2.95;;
49460;SDS011;35355;49.198;-0.368;2022-09-09T06:58:55;17.35;;;2.20;;
49460;SDS011;35355;49.198;-0.368;2022-09-09T07:01:25;57.80;;;5.13;;
49460;SDS011;35355;49.198;-0.368;2022-09-09T07:03:53;25.02;;;3.92;;
49460;SDS011;35355;49.198;-0.368;2022-09-09T07:06:22;106.85;;;10.02;;
49460;SDS011;35355;49.198;-0.368;2022-09-09T07:08:53;37.38;;;3.75;;
49460;SDS011;35355;49.198;-0.368;2022-09-09T07:11:21;24.35;;;3.05;;
49460;SDS011;35355;49.198;-0.368;2022-09-09T07:13:48;29.05;;;3.60;;
49460;SDS011;35355;49.198;-0.368;2022-09-09T07:16:18;36.25;;;3.85;;
49460;SDS011;35355;49.198;-0.368;2022-09-09T07:18:45;21.80;;;2.75;;
49460;SDS011;35355;49.198;-0.368;2022-09-09T07:21:13;62.20;;;4.68;;
49460;SDS011;35355;49.198;-0.368;2022-09-09T07:23:40;27.10;;;3.20;;
49460;SDS011;35355;49.198;-0.368;2022-09-09T07:26:10;38.95;;;4.07;;
49460;SDS011;35355;49.198;-0.368;2022-09-09T07:28:38;33.97;;;5.10;;
49460;SDS011;35355;49.198;-0.368;2022-09-09T07:31:05;18.88;;;2.33;;
49460;SDS011;35355;49.198;-0.368;2022-09-09T07:33:32;69.10;;;6.50;;
49460;SDS011;35355;49.198;-0.368;2022-09-09T07:36:41;52.40;;;5.70;;
49460;SDS011;35355;49.198;-0.368;2022-09-09T07:38:51;49.08;;;4.95;;
49460;SDS011;35355;49.198;-0.368;2022-09-09T07:41:20;27.33;;;4.25;;
49460;SDS011;35355;49.198;-0.368;2022-09-09T07:43:49;35.88;;;3.38;;
49460;SDS011;35355;49.198;-0.368;2022-09-09T07:46:16;58.53;;;5.60;;
49460;SDS011;35355;49.198;-0.368;2022-09-09T07:48:48;12.00;;;2.70;;
49460;SDS011;35355;49.198;-0.368;2022-09-09T07:51:17;14.63;;;2.08;;
49460;SDS011;35355;49.198;-0.368;2022-09-09T07:53:45;21.40;;;2.60;;
49460;SDS011;35355;49.198;-0.368;2022-09-09T07:56:16;17.60;;;2.50;;
49460;SDS011;35355;49.198;-0.368;2022-09-09T07:58:44;12.23;;;2.55;;
49460;SDS011;35355;49.198;-0.368;2022-09-09T08:01:18;14.77;;;2.05;;
49460;SDS011;35355;49.198;-0.368;2022-09-09T08:03:53;17.17;;;2.97;;
49460;SDS011;35355;49.198;-0.368;2022-09-09T08:06:29;24.30;;;2.55;;
49460;SDS011;35355;49.198;-0.368;2022-09-09T08:08:58;19.42;;;2.03;;
49460;SDS011;35355;49.198;-0.368;2022-09-09T08:11:24;11.65;;;2.25;;
49460;SDS011;35355;49.198;-0.368;2022-09-09T08:13:54;14.00;;;2.33;;
49460;SDS011;35355;49.198;-0.368;2022-09-09T08:16:21;12.05;;;2.50;;
49460;SDS011;35355;49.198;-0.368;2022-09-09T08:18:48;10.10;;;2.45;;
49460;SDS011;35355;49.198;-0.368;2022-09-09T08:21:18;14.52;;;1.90;;
49460;SDS011;35355;49.198;-0.368;2022-09-09T08:23:49;18.67;;;2.30;;
49460;SDS011;35355;49.198;-0.368;2022-09-09T08:26:36;19.17;;;2.90;;
49460;SDS011;35355;49.198;-0.368;2022-09-09T08:29:05;13.88;;;2.28;;
49460;SDS011;35355;49.198;-0.368;2022-09-09T08:31:37;17.70;;;2.78;;
49460;SDS011;35355;49.198;-0.368;2022-09-09T08:34:07;18.60;;;2.70;;
49460;SDS011;35355;49.198;-0.368;2022-09-09T08:36:35;20.38;;;2.70;;
49460;SDS011;35355;49.198;-0.368;2022-09-09T08:39:03;11.80;;;1.80;;
49460;SDS011;35355;49.198;-0.368;2022-09-09T08:46:57;14.70;;;1.95;;
49460;SDS011;35355;49.198;-0.368;2022-09-09T08:52:40;11.60;;;1.75;;
49460;SDS011;35355;49.198;-0.368;2022-09-09T08:57:57;6.05;;;1.35;;
49460;SDS011;35355;49.198;-0.368;2022-09-09T09:03:43;6.28;;;1.38;;
49460;SDS011;35355;49.198;-0.368;2022-09-09T09:11:48;6.32;;;1.63;;
49460;SDS011;35355;49.198;-0.368;2022-09-09T09:14:26;10.45;;;1.42;;
49460;SDS011;35355;49.198;-0.368;2022-09-09T09:17:00;7.28;;;1.00;;
49460;SDS011;35355;49.198;-0.368;2022-09-09T09:19:29;11.88;;;1.65;;
49460;SDS011;35355;49.198;-0.368;2022-09-09T09:31:16;14.07;;;2.10;;
49460;SDS011;35355;49.198;-0.368;2022-09-09T09:36:00;16.92;;;2.85;;
49460;SDS011;35355;49.198;-0.368;2022-09-09T09:38:28;13.80;;;1.60;;
49460;SDS011;35355;49.198;-0.368;2022-09-09T09:40:56;8.75;;;2.22;;
49460;SDS011;35355;49.198;-0.368;2022-09-09T09:43:33;8.27;;;1.35;;
49460;SDS011;35355;49.198;-0.368;2022-09-09T09:46:21;13.25;;;1.55;;
49460;SDS011;35355;49.198;-0.368;2022-09-09T09:49:01;12.13;;;1.75;;
49460;SDS011;35355;49.198;-0.368;2022-09-09T09:51:29;7.97;;;1.30;;
49460;SDS011;35355;49.198;-0.368;2022-09-09T09:56:38;6.00;;;1.30;;
49460;SDS011;35355;49.198;-0.368;2022-09-09T09:59:05;8.93;;;1.30;;
49460;SDS011;35355;49.198;-0.368;2022-09-09T10:01:31;10.18;;;1.58;;
49460;SDS011;35355;49.198;-0.368;2022-09-09T10:04:02;8.85;;;2.45;;
49460;SDS011;35355;49.198;-0.368;2022-09-09T10:06:44;10.32;;;2.35;;
49460;SDS011;35355;49.198;-0.368;2022-09-09T10:12:04;9.90;;;1.27;;
49460;SDS011;35355;49.198;-0.368;2022-09-09T10:15:02;11.93;;;1.88;;
49460;SDS011;35355;49.198;-0.368;2022-09-09T10:20:26;6.28;;;1.52;;
49460;SDS011;35355;49.198;-0.368;2022-09-09T10:23:06;12.95;;;1.58;;
49460;SDS011;35355;49.198;-0.368;2022-09-09T10:42:07;8.35;;;1.77;;
49460;SDS011;35355;49.198;-0.368;2022-09-09T10:55:56;7.68;;;1.60;;
49460;SDS011;35355;49.198;-0.368;2022-09-09T10:58:38;9.07;;;1.73;;
49460;SDS011;35355;49.198;-0.368;2022-09-09T11:01:25;11.63;;;1.88;;
49460;SDS011;35355;49.198;-0.368;2022-09-09T11:03:53;13.52;;;2.15;;
49460;SDS011;35355;49.198;-0.368;2022-09-09T11:06:28;8.45;;;1.48;;
49460;SDS011;35355;49.198;-0.368;2022-09-09T11:09:08;15.20;;;1.90;;
49460;SDS011;35355;49.198;-0.368;2022-09-09T11:11:45;6.57;;;1.27;;
49460;SDS011;35355;49.198;-0.368;2022-09-09T11:14:23;9.15;;;1.63;;
49460;SDS011;35355;49.198;-0.368;2022-09-09T11:16:58;12.15;;;1.38;;
49460;SDS011;35355;49.198;-0.368;2022-09-09T11:19:47;15.02;;;1.85;;
49460;SDS011;35355;49.198;-0.368;2022-09-09T11:25:15;7.90;;;1.15;;
49460;SDS011;35355;49.198;-0.368;2022-09-09T11:27:44;9.95;;;1.05;;
49460;SDS011;35355;49.198;-0.368;2022-09-09T11:30:19;12.20;;;1.90;;
49460;SDS011;35355;49.198;-0.368;2022-09-09T11:38:53;3.55;;;0.98;;
49460;SDS011;35355;49.198;-0.368;2022-09-09T11:41:33;10.77;;;0.85;;
49460;SDS011;35355;49.198;-0.368;2022-09-09T11:46:36;5.07;;;1.30;;
49460;SDS011;35355;49.198;-0.368;2022-09-09T11:49:05;10.07;;;1.10;;
49460;SDS011;35355;49.198;-0.368;2022-09-09T11:51:43;5.65;;;1.15;;
49460;SDS011;35355;49.198;-0.368;2022-09-09T11:54:28;6.55;;;0.85;;
49460;SDS011;35355;49.198;-0.368;2022-09-09T11:56:56;7.07;;;1.83;;
49460;SDS011;35355;49.198;-0.368;2022-09-09T11:59:26;8.95;;;1.30;;
49460;SDS011;35355;49.198;-0.368;2022-09-09T12:01:56;5.90;;;0.60;;
49460;SDS011;35355;49.198;-0.368;2022-09-09T12:13:07;5.95;;;0.63;;
49460;SDS011;35355;49.198;-0.368;2022-09-09T12:15:34;3.83;;;1.30;;
49460;SDS011;35355;49.198;-0.368;2022-09-09T12:18:14;5.20;;;1.02;;
49460;SDS011;35355;49.198;-0.368;2022-09-09T12:21:07;8.93;;;1.00;;
49460;SDS011;35355;49.198;-0.368;2022-09-09T12:24:19;4.80;;;1.10;;
49460;SDS011;35355;49.198;-0.368;2022-09-09T12:27:01;5.30;;;0.90;;
49460;SDS011;35355;49.198;-0.368;2022-09-09T12:29:49;6.35;;;1.05;;
49460;SDS011;35355;49.198;-0.368;2022-09-09T12:32:38;6.68;;;1.08;;
49460;SDS011;35355;49.198;-0.368;2022-09-09T12:35:25;11.85;;;2.10;;
49460;SDS011;35355;49.198;-0.368;2022-09-09T12:37:58;11.43;;;1.50;;
49460;SDS011;35355;49.198;-0.368;2022-09-09T12:40:33;5.60;;;1.10;;
49460;SDS011;35355;49.198;-0.368;2022-09-09T12:43:22;14.98;;;1.80;;
49460;SDS011;35355;49.198;-0.368;2022-09-09T12:45:51;12.20;;;1.90;;
49460;SDS011;35355;49.198;-0.368;2022-09-09T12:48:39;7.20;;;1.48;;
49460;SDS011;35355;49.198;-0.368;2022-09-09T12:53:56;9.68;;;1.85;;
49460;SDS011;35355;49.198;-0.368;2022-09-09T12:56:24;5.10;;;1.05;;
49460;SDS011;35355;49.198;-0.368;2022-09-09T12:58:52;10.80;;;1.25;;
49460;SDS011;35355;49.198;-0.368;2022-09-09T13:01:24;3.75;;;1.10;;
49460;SDS011;35355;49.198;-0.368;2022-09-09T13:03:52;9.68;;;1.20;;
49460;SDS011;35355;49.198;-0.368;2022-09-09T13:06:32;6.30;;;1.25;;
49460;SDS011;35355;49.198;-0.368;2022-09-09T13:08:59;4.82;;;1.17;;
49460;SDS011;35355;49.198;-0.368;2022-09-09T13:11:30;8.82;;;1.65;;
49460;SDS011;35355;49.198;-0.368;2022-09-09T13:14:12;9.43;;;1.75;;
49460;SDS011;35355;49.198;-0.368;2022-09-09T13:16:57;5.80;;;0.70;;
49460;SDS011;35355;49.198;-0.368;2022-09-09T13:19:25;4.78;;;1.10;;
49460;SDS011;35355;49.198;-0.368;2022-09-09T13:21:56;8.25;;;1.77;;
49460;SDS011;35355;49.198;-0.368;2022-09-09T13:24:29;5.40;;;1.13;;
49460;SDS011;35355;49.198;-0.368;2022-09-09T13:26:58;5.05;;;1.27;;
49460;SDS011;35355;49.198;-0.368;2022-09-09T13:29:27;7.03;;;1.33;;
49460;SDS011;35355;49.198;-0.368;2022-09-09T13:31:54;9.70;;;1.15;;
49460;SDS011;35355;49.198;-0.368;2022-09-09T13:34:31;10.18;;;1.30;;
49460;SDS011;35355;49.198;-0.368;2022-09-09T13:37:16;3.42;;;0.93;;
49460;SDS011;35355;49.198;-0.368;2022-09-09T13:39:52;10.57;;;1.33;;
49460;SDS011;35355;49.198;-0.368;2022-09-09T13:42:23;5.60;;;0.85;;
49460;SDS011;35355;49.198;-0.368;2022-09-09T13:44:52;8.73;;;1.27;;
49460;SDS011;35355;49.198;-0.368;2022-09-09T13:47:30;11.98;;;0.95;;
49460;SDS011;35355;49.198;-0.368;2022-09-09T14:11:32;8.43;;;1.15;;
49460;SDS011;35355;49.198;-0.368;2022-09-09T14:13:58;10.90;;;1.90;;
49460;SDS011;35355;49.198;-0.368;2022-09-09T14:16:24;6.88;;;1.25;;
49460;SDS011;35355;49.198;-0.368;2022-09-09T14:18:51;8.07;;;0.93;;
49460;SDS011;35355;49.198;-0.368;2022-09-09T14:21:17;12.27;;;1.00;;
49460;SDS011;35355;49.198;-0.368;2022-09-09T14:23:43;8.07;;;1.00;;
49460;SDS011;35355;49.198;-0.368;2022-09-09T14:26:08;8.88;;;1.38;;
49460;SDS011;35355;49.198;-0.368;2022-09-09T14:28:35;7.70;;;1.15;;
49460;SDS011;35355;49.198;-0.368;2022-09-09T14:31:02;11.73;;;1.50;;
49460;SDS011;35355;49.198;-0.368;2022-09-09T14:33:29;10.85;;;1.40;;
49460;SDS011;35355;49.198;-0.368;2022-09-09T14:35:56;8.65;;;1.05;;
49460;SDS011;35355;49.198;-0.368;2022-09-09T14:38:30;7.57;;;1.02;;
49460;SDS011;35355;49.198;-0.368;2022-09-09T14:40:59;12.00;;;1.40;;
49460;SDS011;35355;49.198;-0.368;2022-09-09T14:43:28;9.57;;;1.17;;
49460;SDS011;35355;49.198;-0.368;2022-09-09T14:45:55;5.30;;;0.52;;
49460;SDS011;35355;49.198;-0.368;2022-09-09T14:48:20;10.93;;;1.63;;
49460;SDS011;35355;49.198;-0.368;2022-09-09T14:50:46;7.20;;;1.08;;
49460;SDS011;35355;49.198;-0.368;2022-09-09T14:53:12;10.55;;;1.30;;
49460;SDS011;35355;49.198;-0.368;2022-09-09T14:55:38;16.80;;;1.45;;
49460;SDS011;35355;49.198;-0.368;2022-09-09T14:58:04;11.77;;;1.23;;
49460;SDS011;35355;49.198;-0.368;2022-09-09T15:00:31;9.68;;;1.48;;
49460;SDS011;35355;49.198;-0.368;2022-09-09T15:02:56;11.35;;;1.38;;
49460;SDS011;35355;49.198;-0.368;2022-09-09T15:05:26;10.23;;;0.90;;
49460;SDS011;35355;49.198;-0.368;2022-09-09T15:08:05;5.15;;;1.00;;
49460;SDS011;35355;49.198;-0.368;2022-09-09T15:10:31;6.85;;;0.77;;
49460;SDS011;35355;49.198;-0.368;2022-09-09T15:12:57;4.65;;;0.98;;
49460;SDS011;35355;49.198;-0.368;2022-09-09T15:15:22;9.25;;;0.90;;
49460;SDS011;35355;49.198;-0.368;2022-09-09T15:17:48;10.27;;;1.80;;
49460;SDS011;35355;49.198;-0.368;2022-09-09T15:20:13;10.05;;;0.85;;
49460;SDS011;35355;49.198;-0.368;2022-09-09T15:22:40;12.35;;;1.30;;
49460;SDS011;35355;49.198;-0.368;2022-09-09T15:25:06;13.82;;;1.25;;
49460;SDS011;35355;49.198;-0.368;2022-09-09T15:27:33;10.77;;;1.98;;
49460;SDS011;35355;49.198;-0.368;2022-09-09T15:29:59;9.20;;;1.20;;
49460;SDS011;35355;49.198;-0.368;2022-09-09T15:32:26;12.05;;;3.05;;
49460;SDS011;35355;49.198;-0.368;2022-09-09T15:34:51;12.82;;;2.08;;
49460;SDS011;35355;49.198;-0.368;2022-09-09T15:37:18;17.52;;;1.83;;
49460;SDS011;35355;49.198;-0.368;2022-09-09T15:39:44;8.52;;;1.20;;
49460;SDS011;35355;49.198;-0.368;2022-09-09T15:42:12;9.48;;;1.67;;
49460;SDS011;35355;49.198;-0.368;2022-09-09T15:44:41;12.43;;;1.85;;
49460;SDS011;35355;49.198;-0.368;2022-09-09T15:47:07;16.33;;;1.85;;
49460;SDS011;35355;49.198;-0.368;2022-09-09T15:49:40;15.38;;;1.50;;
49460;SDS011;35355;49.198;-0.368;2022-09-09T15:52:05;11.07;;;1.50;;
49460;SDS011;35355;49.198;-0.368;2022-09-09T15:54:32;11.00;;;1.17;;
49460;SDS011;35355;49.198;-0.368;2022-09-09T15:57:01;9.20;;;1.27;;
49460;SDS011;35355;49.198;-0.368;2022-09-09T15:59:29;11.57;;;1.25;;
49460;SDS011;35355;49.198;-0.368;2022-09-09T16:01:56;12.55;;;2.13;;
49460;SDS011;35355;49.198;-0.368;2022-09-09T16:04:23;13.00;;;1.20;;
49460;SDS011;35355;49.198;-0.368;2022-09-09T16:06:56;10.77;;;1.17;;
49460;SDS011;35355;49.198;-0.368;2022-09-09T16:09:27;17.50;;;1.85;;
49460;SDS011;35355;49.198;-0.368;2022-09-09T16:11:55;15.57;;;1.83;;
49460;SDS011;35355;49.198;-0.368;2022-09-09T16:14:23;14.90;;;1.52;;
49460;SDS011;35355;49.198;-0.368;2022-09-09T16:16:50;13.30;;;1.60;;
49460;SDS011;35355;49.198;-0.368;2022-09-09T16:19:16;14.32;;;1.42;;
49460;SDS011;35355;49.198;-0.368;2022-09-09T16:21:46;10.02;;;1.08;;
49460;SDS011;35355;49.198;-0.368;2022-09-09T16:24:14;15.95;;;1.60;;
49460;SDS011;35355;49.198;-0.368;2022-09-09T16:26:46;13.15;;;2.35;;
49460;SDS011;35355;49.198;-0.368;2022-09-09T16:29:15;10.30;;;1.25;;
49460;SDS011;35355;49.198;-0.368;2022-09-09T16:31:42;14.80;;;2.08;;
49460;SDS011;35355;49.198;-0.368;2022-09-09T16:34:12;12.77;;;2.03;;
49460;SDS011;35355;49.198;-0.368;2022-09-09T16:36:39;6.13;;;0.85;;
49460;SDS011;35355;49.198;-0.368;2022-09-09T16:39:12;13.20;;;1.45;;
49460;SDS011;35355;49.198;-0.368;2022-09-09T16:41:39;9.07;;;1.48;;
49460;SDS011;35355;49.198;-0.368;2022-09-09T16:44:07;14.75;;;1.73;;
49460;SDS011;35355;49.198;-0.368;2022-09-09T16:46:36;9.18;;;1.48;;
49460;SDS011;35355;49.198;-0.368;2022-09-09T16:49:13;11.15;;;2.17;;
49460;SDS011;35355;49.198;-0.368;2022-09-09T16:51:47;13.77;;;1.38;;
49460;SDS011;35355;49.198;-0.368;2022-09-09T16:54:14;14.43;;;1.77;;
49460;SDS011;35355;49.198;-0.368;2022-09-09T16:56:42;13.18;;;1.98;;
49460;SDS011;35355;49.198;-0.368;2022-09-09T16:59:23;15.68;;;1.30;;
49460;SDS011;35355;49.198;-0.368;2022-09-09T17:01:50;15.82;;;1.75;;
49460;SDS011;35355;49.198;-0.368;2022-09-09T17:04:19;15.25;;;2.15;;
49460;SDS011;35355;49.198;-0.368;2022-09-09T17:06:57;17.88;;;1.65;;
49460;SDS011;35355;49.198;-0.368;2022-09-09T17:09:25;8.52;;;1.50;;
49460;SDS011;35355;49.198;-0.368;2022-09-09T17:11:59;12.15;;;2.03;;
49460;SDS011;35355;49.198;-0.368;2022-09-09T17:14:29;10.82;;;1.73;;
49460;SDS011;35355;49.198;-0.368;2022-09-09T17:16:56;12.70;;;2.03;;
49460;SDS011;35355;49.198;-0.368;2022-09-09T17:19:25;10.50;;;1.98;;
49460;SDS011;35355;49.198;-0.368;2022-09-09T17:21:51;15.55;;;1.33;;
49460;SDS011;35355;49.198;-0.368;2022-09-09T17:24:17;13.75;;;1.48;;
49460;SDS011;35355;49.198;-0.368;2022-09-09T17:26:42;13.82;;;2.03;;
49460;SDS011;35355;49.198;-0.368;2022-09-09T17:29:10;18.17;;;1.85;;
49460;SDS011;35355;49.198;-0.368;2022-09-09T17:31:36;9.32;;;1.30;;
49460;SDS011;35355;49.198;-0.368;2022-09-09T17:34:02;14.52;;;2.33;;
49460;SDS011;35355;49.198;-0.368;2022-09-09T17:36:31;11.65;;;1.60;;
49460;SDS011;35355;49.198;-0.368;2022-09-09T17:39:02;9.88;;;1.38;;
49460;SDS011;35355;49.198;-0.368;2022-09-09T17:41:33;19.23;;;2.00;;
49460;SDS011;35355;49.198;-0.368;2022-09-09T17:44:04;14.10;;;1.67;;